Time;durP1;ratioP1;P1;durP2;ratioP2;P2;SDS_P1;SDS_P2;PMS_P1;PMS_P2;Temp;Humidity;BMP_temperature;BMP_pressure;BME280_temperature;BME280_humidity;BME280_pressure;Samples;Min_cycle;Max_cycle;Signal;HPM_P1;HPM_P2
2022/09/05 00:02:01;;;;;;;8.80;6.55;;;;;;;;;;6269577;28;20039;-85
2022/09/05 00:05:20;;;;;;;9.85;6.70;;;;;;;;;;6250405;28;20021;-84
2022/09/05 00:08:21;;;;;;;11.18;7.07;;;;;;;;;;6251854;28;20111;-85
2022/09/05 00:11:21;;;;;;;10.43;6.50;;;;;;;;;;6263484;28;20041;-84
2022/09/05 00:14:24;;;;;;;7.23;4.93;;;;;;;;;;6251002;28;20418;-85
2022/09/05 00:17:46;;;;;;;11.93;7.18;;;;;;;;;;6250413;28;20808;-84
2022/09/05 00:20:49;;;;;;;10.25;6.72;;;;;;;;;;6268326;28;20021;-85
2022/09/05 00:23:55;;;;;;;10.55;6.53;;;;;;;;;;6268913;28;20021;-85
2022/09/05 00:27:03;;;;;;;12.13;7.15;;;;;;;;;;6268199;28;20476;-85
2022/09/05 00:30:06;;;;;;;12.25;7.88;;;;;;;;;;6268892;28;20021;-85
2022/09/05 00:33:17;;;;;;;9.48;6.95;;;;;;;;;;6267831;28;20033;-85
2022/09/05 00:36:31;;;;;;;12.18;6.65;;;;;;;;;;6270966;28;20056;-84
2022/09/05 00:39:33;;;;;;;10.13;7.30;;;;;;;;;;6273583;28;20142;-84
2022/09/05 00:42:33;;;;;;;9.95;6.90;;;;;;;;;;6273792;28;20021;-84
2022/09/05 00:45:36;;;;;;;12.77;6.67;;;;;;;;;;6261664;28;20052;-84
2022/09/05 00:48:43;;;;;;;10.52;7.50;;;;;;;;;;6271034;28;20488;-84
2022/09/05 00:51:46;;;;;;;10.77;7.40;;;;;;;;;;6250549;28;20021;-84
2022/09/05 00:54:57;;;;;;;13.38;8.10;;;;;;;;;;6273499;28;20106;-84
2022/09/05 00:58:06;;;;;;;12.05;7.72;;;;;;;;;;6265821;28;20033;-85
2022/09/05 01:01:23;;;;;;;10.45;7.22;;;;;;;;;;6254277;28;20110;-84
2022/09/05 01:04:28;;;;;;;9.63;7.28;;;;;;;;;;6267006;28;20087;-84
2022/09/05 01:07:50;;;;;;;14.82;8.15;;;;;;;;;;6255412;28;20048;-84
2022/09/05 01:11:11;;;;;;;12.63;7.07;;;;;;;;;;6271469;28;20455;-84
2022/09/05 01:14:35;;;;;;;9.15;7.25;;;;;;;;;;6254164;28;20071;-84
2022/09/05 01:17:49;;;;;;;12.40;8.15;;;;;;;;;;6265461;28;20013;-85
2022/09/05 01:21:04;;;;;;;10.43;7.95;;;;;;;;;;6272879;28;20055;-85
2022/09/05 01:24:04;;;;;;;9.57;8.27;;;;;;;;;;6271870;28;20021;-85
2022/09/05 01:27:23;;;;;;;11.57;8.25;;;;;;;;;;6255539;28;20017;-84
2022/09/05 01:30:32;;;;;;;12.05;9.05;;;;;;;;;;6268373;28;20032;-84
2022/09/05 01:33:38;;;;;;;12.48;8.32;;;;;;;;;;6271789;28;20032;-85
2022/09/05 01:36:44;;;;;;;13.05;9.05;;;;;;;;;;6252655;28;20476;-84
2022/09/05 01:39:44;;;;;;;13.18;8.32;;;;;;;;;;6269276;28;20067;-85
2022/09/05 01:43:03;;;;;;;13.03;9.17;;;;;;;;;;6271631;28;20020;-85
2022/09/05 01:46:22;;;;;;;13.15;8.45;;;;;;;;;;6254607;28;20601;-85
2022/09/05 01:49:28;;;;;;;11.45;8.77;;;;;;;;;;6253851;28;20120;-84
2022/09/05 01:52:29;;;;;;;12.32;8.75;;;;;;;;;;6268798;28;20025;-85
2022/09/05 01:55:48;;;;;;;11.10;8.03;;;;;;;;;;6270914;28;20024;-84
2022/09/05 01:58:55;;;;;;;11.85;8.35;;;;;;;;;;6272119;28;20021;-85
2022/09/05 02:02:05;;;;;;;15.40;9.50;;;;;;;;;;6271719;28;20129;-84
2022/09/05 02:05:27;;;;;;;11.02;8.55;;;;;;;;;;6270265;28;20052;-85
2022/09/05 02:08:37;;;;;;;12.23;8.45;;;;;;;;;;6243638;28;20052;-85
2022/09/05 02:11:56;;;;;;;13.82;7.95;;;;;;;;;;6264714;28;20148;-84
2022/09/05 02:15:03;;;;;;;11.77;8.27;;;;;;;;;;6270462;28;20063;-85
2022/09/05 02:18:05;;;;;;;14.02;9.15;;;;;;;;;;6269752;28;20103;-85
2022/09/05 02:21:09;;;;;;;11.30;8.45;;;;;;;;;;6271727;28;20024;-84
2022/09/05 02:24:13;;;;;;;13.15;9.23;;;;;;;;;;6271170;28;20029;-85
2022/09/05 02:27:13;;;;;;;11.73;8.52;;;;;;;;;;6255615;28;20119;-85
2022/09/05 02:30:17;;;;;;;13.33;8.70;;;;;;;;;;6267205;28;20025;-84
2022/09/05 02:33:18;;;;;;;12.52;9.40;;;;;;;;;;6250779;28;20032;-84
2022/09/05 02:36:37;;;;;;;12.93;9.23;;;;;;;;;;6252777;28;20125;-85
2022/09/05 02:39:45;;;;;;;12.48;8.18;;;;;;;;;;6250352;28;20467;-85
2022/09/05 02:42:50;;;;;;;14.65;10.02;;;;;;;;;;6252654;28;20040;-84
2022/09/05 02:45:58;;;;;;;12.95;9.10;;;;;;;;;;6264656;28;20366;-85
2022/09/05 02:48:59;;;;;;;13.55;8.50;;;;;;;;;;6265836;28;20021;-85
2022/09/05 02:52:02;;;;;;;12.43;8.43;;;;;;;;;;6251381;28;20510;-85
2022/09/05 02:55:05;;;;;;;14.95;8.95;;;;;;;;;;6252182;28;20025;-85
2022/09/05 02:58:15;;;;;;;13.32;8.88;;;;;;;;;;6248538;28;20403;-85
2022/09/05 03:01:16;;;;;;;12.55;8.13;;;;;;;;;;6268700;28;20020;-85
2022/09/05 03:04:25;;;;;;;14.30;7.60;;;;;;;;;;6271138;28;20036;-85
2022/09/05 03:07:43;;;;;;;12.52;7.72;;;;;;;;;;6268455;28;20025;-85
2022/09/05 03:11:13;;;;;;;14.65;7.82;;;;;;;;;;6244254;28;20044;-85
2022/09/05 03:14:32;;;;;;;13.15;8.07;;;;;;;;;;6268990;28;20013;-85
2022/09/05 03:17:52;;;;;;;12.88;7.40;;;;;;;;;;6266751;28;20472;-85
2022/09/05 03:20:52;;;;;;;14.10;8.80;;;;;;;;;;6263712;28;20128;-85
2022/09/05 03:24:21;;;;;;;12.43;8.60;;;;;;;;;;6267333;28;20021;-85
2022/09/05 03:27:40;;;;;;;16.65;9.13;;;;;;;;;;6266743;28;20052;-85
2022/09/05 03:31:05;;;;;;;14.98;9.48;;;;;;;;;;6269602;28;20021;-84
2022/09/05 03:34:26;;;;;;;14.43;10.00;;;;;;;;;;6251153;28;20028;-85
2022/09/05 03:37:27;;;;;;;18.85;9.00;;;;;;;;;;6268700;28;20464;-85
2022/09/05 03:40:49;;;;;;;12.47;8.73;;;;;;;;;;6257220;28;20017;-85
2022/09/05 03:43:59;;;;;;;14.77;8.98;;;;;;;;;;6267404;28;20530;-85
2022/09/05 03:47:11;;;;;;;12.27;9.35;;;;;;;;;;6264973;28;20494;-84
2022/09/05 03:50:11;;;;;;;;;;;;;;;;;;6263070;28;20032;-85
2022/09/05 03:53:27;;;;;;;15.50;8.88;;;;;;;;;;6250668;28;20011;-85
2022/09/05 03:56:31;;;;;;;13.32;8.40;;;;;;;;;;6267869;28;20021;-85
2022/09/05 04:00:07;;;;;;;12.38;9.05;;;;;;;;;;6264860;28;20021;-85
2022/09/05 04:03:18;;;;;;;14.43;9.35;;;;;;;;;;6261070;28;20739;-85
2022/09/05 04:06:21;;;;;;;12.57;7.80;;;;;;;;;;6268208;28;20682;-85
2022/09/05 04:09:30;;;;;;;15.80;10.88;;;;;;;;;;6248193;28;20020;-85
2022/09/05 04:12:49;;;;;;;15.73;10.00;;;;;;;;;;6281132;28;20048;-85
2022/09/05 04:16:10;;;;;;;14.23;9.85;;;;;;;;;;6288489;28;20041;-85
2022/09/05 04:19:11;;;;;;;15.23;9.55;;;;;;;;;;6289657;28;20029;-85
2022/09/05 04:22:21;;;;;;;15.73;10.43;;;;;;;;;;6292396;28;20035;-85
2022/09/05 04:25:34;;;;;;;20.17;11.10;;;;;;;;;;6291309;28;20533;-85
2022/09/05 04:28:52;;;;;;;14.98;9.60;;;;;;;;;;6292681;28;20095;-85
2022/09/05 04:32:01;;;;;;;13.63;10.40;;;;;;;;;;6291573;28;20031;-85
2022/09/05 04:35:20;;;;;;;17.88;10.70;;;;;;;;;;6286774;28;20024;-85
2022/09/05 04:38:38;;;;;;;15.10;10.02;;;;;;;;;;6293071;28;20082;-85
2022/09/05 04:41:41;;;;;;;17.05;10.80;;;;;;;;;;6291980;28;20013;-85
2022/09/05 04:44:41;;;;;;;16.48;11.40;;;;;;;;;;6290366;28;20029;-85
2022/09/05 04:47:44;;;;;;;18.75;10.05;;;;;;;;;;6288984;28;20039;-85
2022/09/05 04:50:53;;;;;;;14.82;8.95;;;;;;;;;;6291353;28;20078;-85
2022/09/05 04:54:02;;;;;;;17.20;9.63;;;;;;;;;;6291175;28;20047;-85
2022/09/05 04:57:21;;;;;;;13.98;9.25;;;;;;;;;;6290781;28;20091;-85
2022/09/05 05:00:24;;;;;;;12.50;8.07;;;;;;;;;;6289104;28;20541;-85
2022/09/05 05:03:26;;;;;;;9.93;7.68;;;;;;;;;;6294821;28;20024;-85
2022/09/05 05:06:29;;;;;;;14.18;7.45;;;;;;;;;;6292514;28;20131;-84
2022/09/05 05:09:34;;;;;;;9.35;6.72;;;;;;;;;;6290181;28;20025;-85
2022/09/05 05:12:52;;;;;;;10.77;7.10;;;;;;;;;;6267690;28;20382;-85
2022/09/05 05:15:56;;;;;;;11.73;6.80;;;;;;;;;;6248797;28;20028;-86
2022/09/05 05:19:05;;;;;;;10.45;6.75;;;;;;;;;;6259880;28;20020;-85
2022/09/05 05:22:11;;;;;;;9.48;5.53;;;;;;;;;;6253133;28;20025;-86
2022/09/05 05:25:12;;;;;;;9.63;6.05;;;;;;;;;;6270811;28;20476;-86
2022/09/05 05:28:35;;;;;;;10.03;5.90;;;;;;;;;;6250666;28;20040;-85
2022/09/05 05:31:38;;;;;;;8.57;5.43;;;;;;;;;;6233466;28;20031;-86
2022/09/05 05:34:45;;;;;;;9.73;5.32;;;;;;;;;;6266460;28;20036;-85
2022/09/05 05:37:52;;;;;;;9.25;5.47;;;;;;;;;;6253981;28;20062;-86
2022/09/05 05:40:56;;;;;;;10.15;5.70;;;;;;;;;;6268745;28;20419;-85
2022/09/05 05:43:57;;;;;;;12.30;5.90;;;;;;;;;;6263915;28;20028;-85
2022/09/05 05:47:01;;;;;;;11.02;6.20;;;;;;;;;;6270470;28;20016;-85
2022/09/05 05:50:04;;;;;;;11.85;6.30;;;;;;;;;;6270705;28;20027;-85
2022/09/05 05:53:10;;;;;;;10.00;5.82;;;;;;;;;;6251689;28;20162;-85
2022/09/05 05:56:19;;;;;;;9.15;5.63;;;;;;;;;;6260096;28;20017;-85
2022/09/05 05:59:49;;;;;;;8.35;5.78;;;;;;;;;;6242385;28;20063;-85
2022/09/05 06:03:00;;;;;;;12.00;6.22;;;;;;;;;;6175592;28;20061;-85
2022/09/05 06:06:19;;;;;;;8.93;5.95;;;;;;;;;;6261146;28;20017;-85
2022/09/05 06:09:40;;;;;;;8.15;5.63;;;;;;;;;;6261593;28;20431;-85
2022/09/05 06:13:01;;;;;;;10.13;6.23;;;;;;;;;;6267744;28;20056;-85
2022/09/05 06:16:19;;;;;;;8.68;5.20;;;;;;;;;;6295788;28;20075;-85
2022/09/05 06:19:39;;;;;;;10.80;6.05;;;;;;;;;;6286316;28;20017;-85
2022/09/05 06:22:40;;;;;;;8.73;5.38;;;;;;;;;;6289263;28;20021;-86
2022/09/05 06:25:43;;;;;;;10.47;5.43;;;;;;;;;;6289128;28;20032;-85
2022/09/05 06:29:01;;;;;;;9.93;6.43;;;;;;;;;;6294205;28;20017;-85
2022/09/05 06:32:01;;;;;;;8.35;5.47;;;;;;;;;;6287633;28;20052;-85
2022/09/05 06:35:14;;;;;;;9.57;5.88;;;;;;;;;;6289880;28;20379;-86
2022/09/05 06:38:29;;;;;;;11.35;6.63;;;;;;;;;;6290711;28;20012;-86
2022/09/05 06:41:38;;;;;;;9.52;5.53;;;;;;;;;;6285829;28;20055;-86
2022/09/05 06:44:50;;;;;;;7.47;5.75;;;;;;;;;;6295387;28;20032;-86
2022/09/05 06:47:54;;;;;;;8.55;5.75;;;;;;;;;;6290726;28;20104;-86
2022/09/05 06:51:07;;;;;;;6.70;4.90;;;;;;;;;;6291637;28;20043;-86
2022/09/05 06:54:20;;;;;;;8.10;5.10;;;;;;;;;;6285629;28;20127;-85
2022/09/05 06:57:32;;;;;;;7.78;5.35;;;;;;;;;;6291328;28;20446;-86
2022/09/05 07:00:33;;;;;;;6.60;4.75;;;;;;;;;;6294852;28;20016;-86
2022/09/05 07:07:21;;;;;;;8.93;4.57;;;;;;;;;;6282434;28;20444;-86
2022/09/05 07:10:21;;;;;;;;;;;;;;;;;;6291160;28;20040;-86
2022/09/05 07:13:36;;;;;;;7.93;4.28;;;;;;;;;;6244287;28;19944;-86
2022/09/05 07:16:49;;;;;;;6.80;4.03;;;;;;;;;;6251257;28;20021;-86
2022/09/05 07:19:55;;;;;;;8.88;4.65;;;;;;;;;;6245497;28;20040;-86
2022/09/05 07:23:00;;;;;;;7.05;3.85;;;;;;;;;;6259321;28;20101;-86
2022/09/05 07:26:00;;;;;;;7.15;4.20;;;;;;;;;;6260902;28;20021;-86
2022/09/05 07:29:00;;;;;;;;;;;;;;;;;;6270704;28;20350;-86
2022/09/05 07:32:01;;;;;;;6.57;3.70;;;;;;;;;;6270136;28;19918;-86
2022/09/05 07:35:03;;;;;;;5.55;3.92;;;;;;;;;;6268630;28;20016;-85
2022/09/05 07:38:05;;;;;;;5.78;3.53;;;;;;;;;;6268715;28;20110;-86
2022/09/05 07:41:25;;;;;;;6.68;4.43;;;;;;;;;;6262776;28;20460;-86
2022/09/05 07:44:28;;;;;;;5.45;4.00;;;;;;;;;;6261167;28;20017;-86
2022/09/05 07:47:33;;;;;;;5.47;3.55;;;;;;;;;;6264471;28;20089;-86
2022/09/05 07:50:45;;;;;;;6.95;4.03;;;;;;;;;;6246757;28;20020;-86
2022/09/05 07:53:46;;;;;;;8.00;4.05;;;;;;;;;;6262050;28;20022;-86
2022/09/05 07:56:52;;;;;;;6.70;3.72;;;;;;;;;;6246364;28;20025;-86
2022/09/05 07:59:57;;;;;;;5.47;3.45;;;;;;;;;;6241726;28;20453;-86
2022/09/05 08:02:59;;;;;;;6.50;4.05;;;;;;;;;;6265523;28;20084;-86
2022/09/05 08:06:03;;;;;;;6.78;3.80;;;;;;;;;;6249622;28;20020;-86
2022/09/05 08:09:06;;;;;;;11.43;4.80;;;;;;;;;;6268545;28;20025;-86
2022/09/05 08:12:10;;;;;;;7.00;4.20;;;;;;;;;;6270035;28;20040;-86
2022/09/05 08:15:17;;;;;;;7.00;4.30;;;;;;;;;;6281303;28;20115;-86
2022/09/05 08:18:21;;;;;;;6.07;3.75;;;;;;;;;;6292452;28;20021;-87
2022/09/05 08:21:25;;;;;;;4.50;3.53;;;;;;;;;;6290053;28;20480;-86
2022/09/05 08:24:31;;;;;;;7.45;3.90;;;;;;;;;;6293725;28;20048;-87
2022/09/05 08:27:40;;;;;;;9.85;3.83;;;;;;;;;;6288164;28;20028;-87
2022/09/05 08:30:47;;;;;;;7.07;3.45;;;;;;;;;;6287473;28;20050;-86
2022/09/05 08:33:50;;;;;;;6.90;3.88;;;;;;;;;;6282783;28;20111;-87
2022/09/05 08:36:51;;;;;;;6.97;3.60;;;;;;;;;;6285595;28;20001;-86
2022/09/05 08:39:52;;;;;;;6.78;4.07;;;;;;;;;;6286480;28;20016;-86
2022/09/05 08:42:54;;;;;;;;;;;;;;;;;;6288025;28;20025;-86
2022/09/05 08:46:05;;;;;;;5.22;3.97;;;;;;;;;;6288879;28;19998;-86
2022/09/05 08:49:23;;;;;;;7.72;4.03;;;;;;;;;;6295854;28;20664;-86
2022/09/05 08:52:39;;;;;;;6.47;3.72;;;;;;;;;;6293009;28;20021;-87
2022/09/05 08:55:42;;;;;;;6.70;4.03;;;;;;;;;;6292929;28;20108;-86
2022/09/05 08:59:09;;;;;;;5.30;3.50;;;;;;;;;;6300312;28;20607;-86
2022/09/05 09:02:22;;;;;;;6.63;4.25;;;;;;;;;;6283363;28;20048;-86
2022/09/05 09:05:41;;;;;;;5.40;3.28;;;;;;;;;;6290262;28;20020;-86
2022/09/05 09:08:59;;;;;;;7.82;3.72;;;;;;;;;;6292919;28;20542;-86
2022/09/05 09:12:02;;;;;;;8.93;4.53;;;;;;;;;;6269180;28;20188;-86
2022/09/05 09:15:23;;;;;;;6.35;4.18;;;;;;;;;;6244397;28;20013;-86
2022/09/05 09:18:31;;;;;;;3.80;3.38;;;;;;;;;;6271598;28;20024;-86
2022/09/05 09:21:38;;;;;;;6.88;4.25;;;;;;;;;;6272478;28;20119;-86
2022/09/05 09:24:48;;;;;;;8.32;4.28;;;;;;;;;;6245778;28;20021;-86
2022/09/05 09:27:54;;;;;;;7.28;4.13;;;;;;;;;;6249528;28;20646;-86
2022/09/05 09:31:13;;;;;;;7.97;4.65;;;;;;;;;;6267047;28;20672;-85
2022/09/05 09:34:16;;;;;;;7.25;4.00;;;;;;;;;;6268837;28;20483;-85
2022/09/05 09:37:32;;;;;;;6.22;3.80;;;;;;;;;;6250542;28;20024;-85
2022/09/05 09:40:47;;;;;;;7.03;4.45;;;;;;;;;;6246147;28;20028;-85
2022/09/05 09:44:06;;;;;;;7.45;4.00;;;;;;;;;;6264751;28;20030;-85
2022/09/05 09:47:11;;;;;;;5.65;3.88;;;;;;;;;;6271958;28;20532;-85
2022/09/05 09:50:11;;;;;;;8.52;4.22;;;;;;;;;;6270031;28;20483;-85
2022/09/05 09:53:20;;;;;;;5.63;3.43;;;;;;;;;;6268875;28;20017;-85
2022/09/05 09:56:23;;;;;;;6.55;3.92;;;;;;;;;;6253778;28;20009;-85
2022/09/05 09:59:24;;;;;;;7.95;3.97;;;;;;;;;;6247554;28;20104;-84
2022/09/05 10:02:42;;;;;;;6.07;4.40;;;;;;;;;;6264490;28;20029;-84
2022/09/05 10:06:02;;;;;;;9.40;4.43;;;;;;;;;;6269628;28;20078;-84
2022/09/05 10:09:17;;;;;;;6.45;3.67;;;;;;;;;;6269506;28;20024;-84
2022/09/05 10:12:36;;;;;;;5.47;3.40;;;;;;;;;;6268191;28;20045;-84
2022/09/05 10:15:50;;;;;;;6.60;3.85;;;;;;;;;;6264056;28;20064;-84
2022/09/05 10:19:09;;;;;;;4.75;3.53;;;;;;;;;;6269503;28;20121;-84
2022/09/05 10:22:28;;;;;;;7.55;3.60;;;;;;;;;;6244689;28;20028;-84
2022/09/05 10:25:37;;;;;;;10.05;4.13;;;;;;;;;;6264532;28;20081;-84
2022/09/05 10:29:01;;;;;;;5.60;3.78;;;;;;;;;;6250347;28;20020;-84
2022/09/05 10:32:07;;;;;;;6.72;3.85;;;;;;;;;;6248256;28;20082;-84
2022/09/05 10:35:37;;;;;;;7.07;3.80;;;;;;;;;;6247754;28;20025;-84
2022/09/05 10:38:41;;;;;;;6.53;3.75;;;;;;;;;;6238916;28;20033;-83
2022/09/05 10:41:48;;;;;;;7.18;3.90;;;;;;;;;;6242308;28;20027;-83
2022/09/05 10:44:53;;;;;;;9.82;3.60;;;;;;;;;;6269211;28;20025;-84
2022/09/05 10:48:12;;;;;;;8.70;3.95;;;;;;;;;;6251361;28;20059;-84
2022/09/05 10:51:14;;;;;;;5.40;3.50;;;;;;;;;;6267870;28;20029;-83
2022/09/05 10:54:25;;;;;;;5.25;3.03;;;;;;;;;;6261136;28;20014;-83
2022/09/05 10:57:38;;;;;;;5.75;3.80;;;;;;;;;;6267228;28;20064;-84
2022/09/05 11:00:52;;;;;;;7.00;3.97;;;;;;;;;;6248745;28;20380;-83
2022/09/05 11:03:55;;;;;;;7.70;3.42;;;;;;;;;;6259632;28;20507;-84
2022/09/05 11:07:01;;;;;;;5.18;3.20;;;;;;;;;;6251638;28;20032;-84
2022/09/05 11:10:05;;;;;;;6.03;3.55;;;;;;;;;;6237972;28;20556;-83
2022/09/05 11:13:10;;;;;;;6.72;2.92;;;;;;;;;;6258192;28;20017;-83
2022/09/05 11:16:10;;;;;;;4.53;3.22;;;;;;;;;;6261070;28;20044;-83
2022/09/05 11:19:18;;;;;;;12.47;6.13;;;;;;;;;;6238202;28;20017;-83
2022/09/05 11:22:22;;;;;;;6.15;3.83;;;;;;;;;;6233670;28;20026;-83
2022/09/05 11:25:23;;;;;;;8.15;3.80;;;;;;;;;;6236478;28;20574;-84
2022/09/05 11:28:32;;;;;;;7.82;4.00;;;;;;;;;;6242187;28;20029;-83
2022/09/05 11:31:52;;;;;;;6.05;3.97;;;;;;;;;;6267800;28;20108;-83
2022/09/05 11:34:52;;;;;;;5.93;3.85;;;;;;;;;;6237867;28;20204;-83
2022/09/05 11:38:08;;;;;;;6.90;3.60;;;;;;;;;;6250349;28;20035;-83
2022/09/05 11:41:27;;;;;;;7.43;3.60;;;;;;;;;;6266435;28;20114;-83
2022/09/05 11:44:27;;;;;;;6.85;4.05;;;;;;;;;;6248954;28;20738;-83
2022/09/05 11:47:41;;;;;;;5.70;3.97;;;;;;;;;;6246622;28;20025;-83
2022/09/05 11:51:00;;;;;;;10.13;4.03;;;;;;;;;;6264874;28;20118;-84
2022/09/05 11:54:09;;;;;;;6.28;3.80;;;;;;;;;;6264053;28;20590;-83
2022/09/05 11:57:30;;;;;;;4.60;3.28;;;;;;;;;;6245203;28;20014;-83
2022/09/05 12:00:54;;;;;;;7.45;3.50;;;;;;;;;;6245666;28;20033;-84
2022/09/05 12:04:03;;;;;;;6.05;3.70;;;;;;;;;;6241418;28;20151;-84
2022/09/05 12:07:04;;;;;;;7.13;3.15;;;;;;;;;;6267303;28;20021;-83
2022/09/05 12:10:04;;;;;;;4.70;3.38;;;;;;;;;;6268430;28;20109;-83
2022/09/05 12:13:19;;;;;;;6.32;3.78;;;;;;;;;;6264321;28;20756;-83
2022/09/05 12:16:20;;;;;;;4.95;3.60;;;;;;;;;;6266886;28;20070;-84
2022/09/05 12:19:23;;;;;;;6.13;4.10;;;;;;;;;;6263901;28;20017;-84
2022/09/05 12:22:23;;;;;;;5.97;2.60;;;;;;;;;;6267771;28;20025;-83
2022/09/05 12:25:32;;;;;;;6.50;3.33;;;;;;;;;;6250134;28;20032;-81
2022/09/05 12:28:40;;;;;;;6.00;3.45;;;;;;;;;;6265902;28;20025;-81
2022/09/05 12:31:59;;;;;;;5.03;3.25;;;;;;;;;;6246438;28;20029;-81
2022/09/05 12:35:01;;;;;;;4.38;2.85;;;;;;;;;;6259338;28;20017;-81
2022/09/05 12:38:19;;;;;;;8.02;3.20;;;;;;;;;;6247827;28;20019;-81
2022/09/05 12:41:20;;;;;;;6.47;3.28;;;;;;;;;;6259522;28;20500;-81
2022/09/05 12:44:20;;;;;;;;;;;;;;;;;;6247989;28;20013;-81
2022/09/05 12:47:26;;;;;;;7.63;3.58;;;;;;;;;;6260743;28;19966;-81
2022/09/05 12:50:46;;;;;;;7.78;3.13;;;;;;;;;;6248824;28;20028;-81
2022/09/05 12:53:49;;;;;;;5.67;3.87;;;;;;;;;;6249663;28;20079;-81
2022/09/05 12:56:53;;;;;;;6.35;3.38;;;;;;;;;;6247237;28;20362;-81
2022/09/05 12:59:56;;;;;;;5.85;3.55;;;;;;;;;;6249192;28;20049;-81
2022/09/05 13:02:59;;;;;;;5.20;3.10;;;;;;;;;;6249135;28;20032;-81
2022/09/05 13:06:03;;;;;;;5.70;2.95;;;;;;;;;;6249399;28;20021;-81
2022/09/05 13:09:09;;;;;;;7.93;3.38;;;;;;;;;;6224342;28;20436;-81
2022/09/05 13:12:14;;;;;;;5.25;3.67;;;;;;;;;;6272568;28;20438;-81
2022/09/05 13:15:25;;;;;;;8.15;3.17;;;;;;;;;;6287954;28;20020;-81
2022/09/05 13:18:30;;;;;;;9.02;3.40;;;;;;;;;;6291540;28;20023;-81
2022/09/05 13:21:30;;;;;;;6.88;3.35;;;;;;;;;;6289827;28;20013;-81
2022/09/05 13:24:37;;;;;;;7.53;3.60;;;;;;;;;;6290858;28;20048;-81
2022/09/05 13:27:40;;;;;;;5.22;3.13;;;;;;;;;;6288600;28;20354;-81
2022/09/05 13:30:48;;;;;;;11.77;4.15;;;;;;;;;;6286184;28;20095;-81
2022/09/05 13:33:50;;;;;;;7.10;3.60;;;;;;;;;;6287245;28;20024;-81
2022/09/05 13:36:50;;;;;;;5.32;2.95;;;;;;;;;;6295008;28;20611;-81
2022/09/05 13:40:04;;;;;;;3.85;3.10;;;;;;;;;;6295733;28;20015;-81
2022/09/05 13:43:11;;;;;;;4.38;3.13;;;;;;;;;;6295685;28;20059;-81
2022/09/05 13:46:17;;;;;;;6.85;3.47;;;;;;;;;;6290046;28;20135;-81
2022/09/05 13:49:17;;;;;;;4.72;3.53;;;;;;;;;;6295164;28;20020;-81
2022/09/05 13:52:24;;;;;;;4.05;2.92;;;;;;;;;;6296246;28;20063;-81
2022/09/05 13:55:36;;;;;;;7.53;3.55;;;;;;;;;;6290754;28;20024;-81
2022/09/05 13:58:44;;;;;;;5.72;3.17;;;;;;;;;;6297810;28;20039;-81
2022/09/05 14:01:47;;;;;;;8.13;2.97;;;;;;;;;;6297722;28;20025;-81
2022/09/05 14:05:04;;;;;;;6.45;3.03;;;;;;;;;;6294566;28;20388;-81
2022/09/05 14:08:18;;;;;;;6.18;2.72;;;;;;;;;;6284699;28;20515;-80
2022/09/05 14:11:30;;;;;;;8.95;3.22;;;;;;;;;;6284439;28;20045;-81
2022/09/05 14:14:34;;;;;;;5.55;3.20;;;;;;;;;;6272228;28;20376;-81
2022/09/05 14:17:46;;;;;;;5.28;2.70;;;;;;;;;;6273322;28;20542;-81
2022/09/05 14:24:16;;;;;;;4.28;3.13;;;;;;;;;;6265268;28;20036;-80
2022/09/05 14:27:17;;;;;;;6.15;3.47;;;;;;;;;;6252079;28;20071;-81
2022/09/05 14:30:28;;;;;;;8.52;3.08;;;;;;;;;;6271876;28;20032;-81
2022/09/05 14:33:38;;;;;;;3.72;2.63;;;;;;;;;;6270832;28;20511;-81
2022/09/05 14:36:57;;;;;;;6.45;3.38;;;;;;;;;;6250886;28;20104;-81
2022/09/05 14:39:57;;;;;;;7.97;4.00;;;;;;;;;;6270137;28;20024;-81
2022/09/05 14:43:12;;;;;;;9.77;3.37;;;;;;;;;;6248312;28;20040;-81
2022/09/05 14:46:31;;;;;;;6.05;3.08;;;;;;;;;;6267936;28;20025;-81
2022/09/05 14:49:33;;;;;;;6.88;3.72;;;;;;;;;;6262098;28;20070;-81
2022/09/05 14:52:34;;;;;;;4.97;2.92;;;;;;;;;;6258714;28;20016;-81
2022/09/05 14:55:34;;;;;;;9.07;3.03;;;;;;;;;;6257798;28;20029;-81
2022/09/05 14:58:35;;;;;;;5.60;4.07;;;;;;;;;;6262653;28;20021;-81
2022/09/05 15:01:55;;;;;;;6.13;3.13;;;;;;;;;;6244859;28;20074;-81
2022/09/05 15:05:16;;;;;;;9.50;3.50;;;;;;;;;;6244099;28;20020;-81
2022/09/05 15:08:18;;;;;;;10.70;3.73;;;;;;;;;;6244148;28;20024;-81
2022/09/05 15:11:22;;;;;;;6.50;3.05;;;;;;;;;;6269587;28;20120;-81
2022/09/05 15:14:27;;;;;;;7.50;3.42;;;;;;;;;;6251623;28;20026;-81
2022/09/05 15:17:29;;;;;;;3.60;3.13;;;;;;;;;;6267467;28;20107;-82
2022/09/05 15:20:37;;;;;;;6.65;3.80;;;;;;;;;;6269749;28;20106;-81
2022/09/05 15:23:37;;;;;;;4.85;3.22;;;;;;;;;;6251570;28;20036;-81
2022/09/05 15:26:45;;;;;;;5.00;2.87;;;;;;;;;;6268166;28;20028;-81
2022/09/05 15:29:53;;;;;;;9.18;3.42;;;;;;;;;;6268471;28;20023;-81
2022/09/05 15:33:12;;;;;;;5.40;3.38;;;;;;;;;;6269121;28;20033;-81
2022/09/05 15:36:12;;;;;;;5.00;3.40;;;;;;;;;;6251062;28;20009;-81
2022/09/05 15:39:23;;;;;;;9.05;3.15;;;;;;;;;;6269219;28;20558;-81
2022/09/05 15:42:28;;;;;;;5.40;3.08;;;;;;;;;;6264756;28;20028;-81
2022/09/05 15:45:30;;;;;;;9.48;3.97;;;;;;;;;;6269571;28;20376;-81
2022/09/05 15:48:31;;;;;;;5.32;3.28;;;;;;;;;;6251428;28;20099;-81
2022/09/05 15:51:50;;;;;;;8.82;4.07;;;;;;;;;;6269833;28;20078;-81
2022/09/05 15:54:56;;;;;;;6.97;4.22;;;;;;;;;;6269941;28;20021;-81
2022/09/05 15:58:01;;;;;;;10.60;5.95;;;;;;;;;;6263033;28;20510;-81
2022/09/05 16:01:10;;;;;;;10.07;5.88;;;;;;;;;;6270086;28;20020;-81
2022/09/05 16:04:12;;;;;;;8.70;4.18;;;;;;;;;;6269285;28;20461;-81
2022/09/05 16:07:21;;;;;;;13.27;6.38;;;;;;;;;;6269056;28;20021;-81
2022/09/05 16:10:23;;;;;;;12.68;6.55;;;;;;;;;;6250099;28;20073;-81
2022/09/05 16:13:23;;;;;;;10.50;6.57;;;;;;;;;;6247827;28;20584;-81
2022/09/05 16:16:26;;;;;;;10.93;7.10;;;;;;;;;;6254091;28;20020;-81
2022/09/05 16:19:47;;;;;;;11.02;6.47;;;;;;;;;;6253741;28;20125;-81
2022/09/05 16:23:06;;;;;;;16.88;7.75;;;;;;;;;;6252522;28;20010;-81
2022/09/05 16:26:11;;;;;;;12.60;6.82;;;;;;;;;;6237037;28;20518;-81
2022/09/05 16:29:17;;;;;;;9.77;5.50;;;;;;;;;;6255738;28;20063;-81
2022/09/05 16:32:22;;;;;;;9.90;5.47;;;;;;;;;;6232679;28;20033;-81
2022/09/05 16:35:23;;;;;;;8.55;4.43;;;;;;;;;;6237482;28;20067;-81
2022/09/05 16:38:25;;;;;;;8.23;4.27;;;;;;;;;;6250116;28;20611;-81
2022/09/05 16:41:35;;;;;;;7.70;4.07;;;;;;;;;;6251826;28;20025;-81
2022/09/05 16:44:39;;;;;;;7.55;4.20;;;;;;;;;;6250474;28;20021;-81
2022/09/05 16:47:44;;;;;;;10.23;5.07;;;;;;;;;;6256852;28;20651;-81
2022/09/05 16:51:04;;;;;;;9.43;5.88;;;;;;;;;;6232543;28;20027;-81
2022/09/05 16:54:11;;;;;;;8.23;5.43;;;;;;;;;;6232298;28;20048;-81
2022/09/05 16:57:19;;;;;;;12.23;8.23;;;;;;;;;;6233545;28;20029;-81
2022/09/05 17:00:19;;;;;;;15.93;7.30;;;;;;;;;;6250029;28;20029;-81
2022/09/05 17:03:20;;;;;;;14.43;6.63;;;;;;;;;;6251001;28;20028;-81
2022/09/05 17:06:23;;;;;;;13.48;5.95;;;;;;;;;;6242526;28;20453;-81
2022/09/05 17:09:26;;;;;;;12.43;6.28;;;;;;;;;;6255147;28;20017;-81
2022/09/05 17:12:30;;;;;;;9.10;5.05;;;;;;;;;;6283132;28;20086;-82
2022/09/05 17:15:34;;;;;;;14.10;5.53;;;;;;;;;;6292413;28;20024;-81
2022/09/05 17:18:35;;;;;;;13.50;5.88;;;;;;;;;;6285235;28;20074;-81
2022/09/05 17:21:37;;;;;;;6.45;4.95;;;;;;;;;;6282601;28;20060;-81
2022/09/05 17:24:40;;;;;;;7.25;4.32;;;;;;;;;;6284824;28;20056;-81
2022/09/05 17:27:41;;;;;;;9.85;5.30;;;;;;;;;;6281234;28;20013;-81
2022/09/05 17:30:44;;;;;;;11.63;5.03;;;;;;;;;;6280223;28;20013;-81
2022/09/05 17:33:44;;;;;;;7.03;5.03;;;;;;;;;;6289951;28;20399;-81
2022/09/05 17:36:50;;;;;;;13.33;5.60;;;;;;;;;;6283451;28;20052;-81
2022/09/05 17:40:09;;;;;;;9.93;4.97;;;;;;;;;;6292316;28;20016;-81
2022/09/05 17:43:29;;;;;;;8.63;4.75;;;;;;;;;;6296893;28;20025;-81
2022/09/05 17:46:32;;;;;;;9.85;5.03;;;;;;;;;;6295573;28;20467;-81
2022/09/05 17:49:43;;;;;;;11.63;4.90;;;;;;;;;;6294790;28;20008;-81
2022/09/05 17:53:02;;;;;;;8.53;4.13;;;;;;;;;;6296406;28;20016;-81
2022/09/05 17:56:06;;;;;;;10.02;5.30;;;;;;;;;;6294359;28;20017;-81
2022/09/05 17:59:16;;;;;;;10.75;4.47;;;;;;;;;;6291383;28;20017;-81
2022/09/05 18:02:17;;;;;;;12.23;5.18;;;;;;;;;;6290602;28;20055;-81
2022/09/05 18:05:36;;;;;;;9.02;6.05;;;;;;;;;;6291840;28;20492;-82
2022/09/05 18:08:45;;;;;;;11.27;5.85;;;;;;;;;;6282714;28;20024;-82
2022/09/05 18:12:05;;;;;;;9.77;4.97;;;;;;;;;;6278520;28;20048;-82
2022/09/05 18:15:11;;;;;;;9.27;6.03;;;;;;;;;;6271176;28;20017;-82
2022/09/05 18:18:29;;;;;;;13.98;6.18;;;;;;;;;;6263796;28;20017;-81
2022/09/05 18:21:41;;;;;;;12.40;7.10;;;;;;;;;;6267522;28;20027;-81
2022/09/05 18:24:44;;;;;;;15.10;7.35;;;;;;;;;;6251770;28;20454;-81
2022/09/05 18:27:49;;;;;;;12.38;6.45;;;;;;;;;;6248953;28;20025;-81
2022/09/05 18:30:50;;;;;;;12.00;7.63;;;;;;;;;;6248551;28;20017;-81
2022/09/05 18:34:17;;;;;;;11.10;6.00;;;;;;;;;;6266901;28;20142;-82
2022/09/05 18:37:36;;;;;;;10.70;6.53;;;;;;;;;;6254473;28;20052;-82
2022/09/05 18:40:38;;;;;;;13.57;7.43;;;;;;;;;;6247433;28;20025;-82
2022/09/05 18:43:38;;;;;;;;;;;;;;;;;;6254029;28;20025;-82
2022/09/05 18:46:41;;;;;;;8.13;5.50;;;;;;;;;;6263599;28;19909;-81
2022/09/05 18:49:52;;;;;;;9.73;4.93;;;;;;;;;;6265953;28;20094;-81
2022/09/05 18:52:56;;;;;;;19.47;5.87;;;;;;;;;;6269792;28;20017;-81